createdAt,value
2022-10-07T00:01:00.314Z,100.00
2022-10-07T00:03:28.601Z,100.00
2022-10-07T00:06:09.028Z,100.00
2022-10-07T00:08:37.095Z,100.00
2022-10-07T00:11:10.640Z,100.00
2022-10-07T00:13:41.471Z,100.00
2022-10-07T00:16:14.596Z,100.00
2022-10-07T00:18:42.163Z,100.00
2022-10-07T00:21:12.142Z,100.00
2022-10-07T00:23:40.035Z,100.00
2022-10-07T00:26:08.483Z,100.00
2022-10-07T00:28:36.745Z,100.00
2022-10-07T00:31:09.709Z,100.00
2022-10-07T00:33:39.613Z,100.00
2022-10-07T00:36:16.120Z,100.00
2022-10-07T00:38:42.905Z,100.00
2022-10-07T00:41:17.520Z,100.00
2022-10-07T00:43:44.218Z,100.00
2022-10-07T00:46:24.438Z,100.00
2022-10-07T00:48:51.431Z,100.00
2022-10-07T00:51:18.732Z,100.00
2022-10-07T00:53:49.160Z,100.00
2022-10-07T00:56:17.899Z,100.00
2022-10-07T00:58:47.943Z,100.00
2022-10-07T01:01:14.633Z,100.00
2022-10-07T01:03:42.286Z,100.00
2022-10-07T01:06:10.408Z,100.00
2022-10-07T01:08:38.917Z,100.00
2022-10-07T01:11:17.654Z,100.00
2022-10-07T01:14:22.638Z,100.00
2022-10-07T01:17:00.748Z,100.00
2022-10-07T01:19:53.257Z,100.00
2022-10-07T01:22:34.111Z,100.00
2022-10-07T01:25:24.710Z,100.00
2022-10-07T01:27:58.657Z,100.00
2022-10-07T01:30:25.486Z,100.00
2022-10-07T01:32:59.790Z,100.00
2022-10-07T01:35:33.559Z,100.00
2022-10-07T01:38:05.973Z,100.00
2022-10-07T01:40:44.331Z,100.00
2022-10-07T01:43:15.773Z,100.00
2022-10-07T01:45:43.255Z,100.00
2022-10-07T01:48:10.262Z,100.00
2022-10-07T01:50:38.225Z,100.00
2022-10-07T01:53:23.813Z,100.00
2022-10-07T01:55:57.781Z,100.00
2022-10-07T01:58:53.405Z,100.00
2022-10-07T02:01:48.381Z,100.00
2022-10-07T02:04:18.897Z,100.00
2022-10-07T02:07:24.220Z,100.00
2022-10-07T02:10:08.114Z,100.00
2022-10-07T02:12:42.797Z,100.00
2022-10-07T02:15:26.956Z,100.00
2022-10-07T02:18:01.228Z,100.00
2022-10-07T02:20:33.235Z,100.00
2022-10-07T02:23:02.394Z,100.00
2022-10-07T02:25:35.416Z,100.00
2022-10-07T02:28:05.574Z,100.00
2022-10-07T02:30:36.241Z,100.00
2022-10-07T02:33:06.374Z,100.00
2022-10-07T02:35:47.631Z,100.00
2022-10-07T02:38:16.741Z,100.00
2022-10-07T02:40:54.411Z,100.00
2022-10-07T02:43:47.585Z,100.00
2022-10-07T02:46:32.003Z,100.00
2022-10-07T02:49:05.997Z,100.00
2022-10-07T02:51:40.842Z,100.00
2022-10-07T02:54:07.565Z,100.00
2022-10-07T02:56:37.801Z,100.00
2022-10-07T02:59:08.234Z,100.00
2022-10-07T03:01:41.390Z,100.00
2022-10-07T03:04:08.344Z,100.00
2022-10-07T03:06:36.372Z,100.00
2022-10-07T03:09:04.319Z,100.00
2022-10-07T03:11:31.012Z,100.00
2022-10-07T03:13:58.503Z,100.00
2022-10-07T03:16:25.918Z,100.00
2022-10-07T03:18:53.179Z,100.00
2022-10-07T03:21:25.664Z,100.00
2022-10-07T03:23:55.347Z,100.00
2022-10-07T03:26:26.208Z,100.00
2022-10-07T03:28:53.635Z,100.00
2022-10-07T03:31:20.726Z,100.00
2022-10-07T03:33:50.199Z,100.00
2022-10-07T03:36:18.260Z,100.00
2022-10-07T03:38:46.971Z,100.00
2022-10-07T03:41:14.298Z,100.00
2022-10-07T03:43:40.975Z,100.00
2022-10-07T03:46:09.609Z,100.00
2022-10-07T03:48:37.829Z,100.00
2022-10-07T03:51:04.681Z,100.00
2022-10-07T03:53:34.533Z,100.00
2022-10-07T03:56:01.905Z,100.00
2022-10-07T03:58:30.225Z,100.00
2022-10-07T04:01:16.236Z,100.00
2022-10-07T04:03:49.201Z,100.00
2022-10-07T04:06:16.011Z,100.00
2022-10-07T04:08:44.968Z,100.00
2022-10-07T04:11:13.051Z,100.00
2022-10-07T04:13:42.163Z,100.00
2022-10-07T04:16:10.210Z,100.00
2022-10-07T04:18:37.728Z,100.00
2022-10-07T04:21:05.287Z,100.00
2022-10-07T04:23:35.143Z,100.00
2022-10-07T04:26:06.881Z,100.00
2022-10-07T04:28:33.711Z,100.00
2022-10-07T04:31:08.840Z,100.00
2022-10-07T04:33:40.999Z,100.00
2022-10-07T04:36:09.747Z,100.00
2022-10-07T04:38:50.494Z,100.00
2022-10-07T04:41:19.653Z,100.00
2022-10-07T04:43:53.210Z,100.00
2022-10-07T04:46:23.954Z,100.00
2022-10-07T04:48:57.100Z,100.00
2022-10-07T04:51:26.020Z,100.00
2022-10-07T04:53:57.328Z,100.00
2022-10-07T04:56:31.519Z,100.00
2022-10-07T04:58:59.498Z,100.00
2022-10-07T05:01:26.315Z,100.00
2022-10-07T05:03:54.227Z,100.00
2022-10-07T05:06:20.990Z,100.00
2022-10-07T05:08:48.671Z,100.00
2022-10-07T05:11:15.400Z,100.00
2022-10-07T05:13:48.983Z,100.00
2022-10-07T05:16:16.446Z,100.00
2022-10-07T05:18:43.698Z,100.00
2022-10-07T05:21:12.670Z,100.00
2022-10-07T05:23:43.842Z,100.00
2022-10-07T05:26:15.318Z,100.00
2022-10-07T05:28:48.644Z,100.00
2022-10-07T05:31:19.127Z,100.00
2022-10-07T05:33:50.177Z,100.00
2022-10-07T05:36:20.197Z,100.00
2022-10-07T05:38:48.044Z,100.00
2022-10-07T05:41:15.005Z,100.00
2022-10-07T05:43:43.304Z,100.00
2022-10-07T05:46:16.423Z,100.00
2022-10-07T05:48:48.994Z,100.00
2022-10-07T05:51:17.220Z,100.00
2022-10-07T05:53:45.570Z,100.00
2022-10-07T05:56:16.497Z,100.00
2022-10-07T05:58:43.451Z,100.00
2022-10-07T06:01:22.170Z,100.00
2022-10-07T06:03:51.323Z,100.00
2022-10-07T06:06:19.540Z,100.00
2022-10-07T06:08:50.715Z,100.00
2022-10-07T06:11:37.958Z,100.00
2022-10-07T06:14:06.117Z,100.00
2022-10-07T06:16:33.038Z,100.00
2022-10-07T06:19:00.246Z,100.00
2022-10-07T06:21:30.156Z,100.00
2022-10-07T06:24:01.102Z,100.00
2022-10-07T06:26:34.006Z,100.00
2022-10-07T06:29:04.529Z,100.00
2022-10-07T06:31:32.471Z,99.46
2022-10-07T06:34:02.847Z,98.09
2022-10-07T06:36:30.663Z,97.89
2022-10-07T06:38:58.128Z,98.97
2022-10-07T06:41:30.775Z,99.75
2022-10-07T06:44:20.583Z,98.04
2022-10-07T06:46:47.291Z,96.98
2022-10-07T06:49:14.244Z,97.17
2022-10-07T06:51:40.897Z,96.56
2022-10-07T06:54:08.266Z,94.83
2022-10-07T06:56:35.887Z,93.25
2022-10-07T06:59:03.320Z,92.46
2022-10-07T07:01:38.185Z,91.91
2022-10-07T07:04:05.154Z,90.81
2022-10-07T07:06:36.411Z,89.98
2022-10-07T07:09:05.318Z,88.71
2022-10-07T07:11:38.235Z,88.16
2022-10-07T07:14:12.362Z,87.92
2022-10-07T07:16:42.292Z,86.61
2022-10-07T07:19:12.082Z,84.98
2022-10-07T07:21:41.011Z,85.71
2022-10-07T07:24:10.678Z,85.30
2022-10-07T07:26:39.504Z,85.63
2022-10-07T07:29:08.068Z,85.16
2022-10-07T07:31:42.750Z,85.48
2022-10-07T07:34:11.507Z,84.63
2022-10-07T07:36:43.960Z,85.24
2022-10-07T07:39:13.795Z,84.12
2022-10-07T07:41:46.609Z,84.73
2022-10-07T07:44:18.053Z,85.45
2022-10-07T07:46:51.183Z,84.45
2022-10-07T07:49:21.157Z,82.99
2022-10-07T07:51:48.307Z,82.32
2022-10-07T07:54:21.335Z,81.71
2022-10-07T07:56:49.173Z,80.83
2022-10-07T07:59:18.134Z,81.11
2022-10-07T08:01:47.445Z,79.64
2022-10-07T08:04:15.328Z,79.16
2022-10-07T08:06:42.929Z,77.79
2022-10-07T08:09:09.874Z,76.52
2022-10-07T08:11:37.822Z,77.52
2022-10-07T08:14:04.769Z,77.70
2022-10-07T08:16:34.604Z,78.65
2022-10-07T08:19:01.372Z,78.07
2022-10-07T08:21:33.010Z,78.28
2022-10-07T08:24:03.905Z,77.57
2022-10-07T08:26:34.783Z,76.79
2022-10-07T08:29:04.720Z,76.41
2022-10-07T08:31:32.022Z,75.95
2022-10-07T08:34:00.596Z,77.94
2022-10-07T08:36:29.752Z,76.93
2022-10-07T08:38:56.826Z,76.38
2022-10-07T08:41:28.283Z,76.05
2022-10-07T08:43:58.168Z,76.17
2022-10-07T08:46:32.471Z,75.16
2022-10-07T08:49:03.641Z,74.52
2022-10-07T08:51:34.444Z,75.08
2022-10-07T08:54:01.289Z,76.31
2022-10-07T08:56:29.399Z,77.06
2022-10-07T08:59:15.983Z,76.17
2022-10-07T09:01:45.602Z,74.89
2022-10-07T09:04:24.505Z,75.17
2022-10-07T09:06:58.892Z,73.18
2022-10-07T09:09:32.596Z,74.47
2022-10-07T09:12:02.084Z,74.51
2022-10-07T09:14:30.632Z,74.37
2022-10-07T09:17:03.176Z,74.31
2022-10-07T09:19:36.630Z,73.55
2022-10-07T09:22:31.693Z,73.08
2022-10-07T09:25:22.996Z,71.25
2022-10-07T09:27:52.114Z,70.82
2022-10-07T09:30:20.097Z,71.41
2022-10-07T09:32:49.461Z,73.23
2022-10-07T09:35:20.111Z,72.47
2022-10-07T09:37:58.029Z,74.00
2022-10-07T09:40:27.626Z,72.43
2022-10-07T09:42:54.984Z,72.28
2022-10-07T09:45:26.443Z,73.23
2022-10-07T09:48:16.023Z,75.16
2022-10-07T09:50:44.804Z,75.75
2022-10-07T09:53:29.026Z,75.54
2022-10-07T09:55:55.883Z,72.46
2022-10-07T09:58:30.569Z,72.15
2022-10-07T10:00:59.686Z,72.43
2022-10-07T10:03:31.798Z,72.40
2022-10-07T10:06:04.262Z,69.48
2022-10-07T10:08:34.391Z,69.59
2022-10-07T10:11:03.959Z,70.22
2022-10-07T10:13:30.711Z,70.18
2022-10-07T10:15:58.435Z,71.46
2022-10-07T10:18:41.272Z,72.91
2022-10-07T10:21:20.670Z,72.28
2022-10-07T10:24:11.635Z,69.50
2022-10-07T10:27:13.025Z,68.40
2022-10-07T10:29:52.033Z,68.23
2022-10-07T10:32:39.323Z,69.38
2022-10-07T10:35:19.653Z,68.17
2022-10-07T10:38:02.338Z,69.86
2022-10-07T10:40:41.275Z,70.33
2022-10-07T10:43:25.906Z,69.62
2022-10-07T10:46:13.872Z,69.04
2022-10-07T10:49:25.518Z,66.25
2022-10-07T10:52:13.485Z,68.28
2022-10-07T10:54:55.606Z,69.50
2022-10-07T10:57:46.359Z,69.31
2022-10-07T11:00:19.326Z,68.30
2022-10-07T11:03:13.893Z,69.17
2022-10-07T11:05:42.628Z,68.72
2022-10-07T11:08:19.905Z,68.15
2022-10-07T11:10:48.751Z,67.48
2022-10-07T11:13:40.900Z,68.31
2022-10-07T11:16:19.087Z,70.66
2022-10-07T11:19:04.646Z,70.12
2022-10-07T11:21:57.183Z,70.32
2022-10-07T11:24:40.677Z,69.36
2022-10-07T11:27:14.980Z,69.19
2022-10-07T11:30:00.623Z,70.42
2022-10-07T11:32:56.907Z,69.84
2022-10-07T11:35:34.421Z,69.82
2022-10-07T11:38:10.185Z,70.05
2022-10-07T11:40:49.863Z,70.39
2022-10-07T11:43:28.511Z,69.08
2022-10-07T11:46:01.207Z,68.18
2022-10-07T11:48:39.178Z,67.67
2022-10-07T11:51:08.772Z,66.44
2022-10-07T11:53:39.272Z,66.50
2022-10-07T11:56:16.940Z,65.45
2022-10-07T11:58:44.745Z,67.74
2022-10-07T12:01:28.578Z,68.77
2022-10-07T12:04:00.392Z,68.97
2022-10-07T12:06:27.318Z,68.08
2022-10-07T12:08:54.614Z,69.75
2022-10-07T12:11:24.730Z,70.31
2022-10-07T12:13:53.920Z,70.43
2022-10-07T12:16:23.743Z,71.29
2022-10-07T12:19:10.820Z,72.42
2022-10-07T12:22:03.823Z,73.19
2022-10-07T12:24:36.171Z,73.38
2022-10-07T12:27:07.512Z,75.29
2022-10-07T12:29:45.255Z,76.83
2022-10-07T12:32:50.416Z,77.92
2022-10-07T12:35:29.406Z,78.87
2022-10-07T12:38:23.888Z,78.44
2022-10-07T12:40:59.691Z,78.96
2022-10-07T12:43:46.005Z,78.87
2022-10-07T12:46:17.223Z,78.62
2022-10-07T12:48:56.005Z,78.86
2022-10-07T12:51:28.217Z,79.11
2022-10-07T12:53:58.598Z,79.32
2022-10-07T12:56:29.025Z,79.56
2022-10-07T12:59:35.289Z,80.23
2022-10-07T13:02:02.148Z,81.26
2022-10-07T13:04:31.903Z,80.32
2022-10-07T13:07:17.298Z,81.38
2022-10-07T13:10:01.998Z,82.01
2022-10-07T13:12:45.047Z,83.06
2022-10-07T13:15:41.368Z,84.14
2022-10-07T13:18:32.613Z,84.03
2022-10-07T13:21:08.349Z,84.14
2022-10-07T13:23:36.559Z,84.04
2022-10-07T13:26:03.755Z,84.29
2022-10-07T13:28:45.357Z,85.39
2022-10-07T13:31:20.428Z,84.88
2022-10-07T13:33:48.405Z,85.46
2022-10-07T13:36:33.065Z,84.74
2022-10-07T13:39:18.072Z,84.76
2022-10-07T13:41:47.758Z,84.71
2022-10-07T13:44:18.362Z,84.97
2022-10-07T13:46:55.938Z,86.16
2022-10-07T13:49:30.543Z,86.37
2022-10-07T13:52:00.924Z,87.03
2022-10-07T13:54:30.616Z,87.82
2022-10-07T13:56:57.862Z,88.27
2022-10-07T13:59:25.139Z,88.29
2022-10-07T14:01:54.524Z,88.68
2022-10-07T14:04:29.331Z,89.49
2022-10-07T14:07:11.151Z,89.96
2022-10-07T14:09:43.434Z,90.13
2022-10-07T14:12:25.534Z,90.60
2022-10-07T14:14:55.719Z,91.28
2022-10-07T14:17:33.071Z,91.51
2022-10-07T14:20:05.527Z,92.20
2022-10-07T14:22:38.074Z,93.12
2022-10-07T14:25:15.836Z,92.77
2022-10-07T14:27:55.644Z,92.94
2022-10-07T14:30:56.448Z,93.21
2022-10-07T14:33:53.759Z,93.53
2022-10-07T14:36:22.415Z,93.64
2022-10-07T14:38:51.539Z,94.47
2022-10-07T14:41:22.681Z,94.35
2022-10-07T14:43:52.244Z,94.53
2022-10-07T14:46:25.403Z,95.07
2022-10-07T14:48:53.944Z,95.65
2022-10-07T14:51:28.310Z,95.81
2022-10-07T14:54:03.298Z,96.44
2022-10-07T14:56:32.486Z,96.47
2022-10-07T14:58:59.691Z,95.20
2022-10-07T15:01:28.455Z,94.92
2022-10-07T15:03:59.145Z,95.13
2022-10-07T15:06:26.242Z,95.74
2022-10-07T15:08:52.958Z,95.39
2022-10-07T15:11:21.872Z,96.02
2022-10-07T15:13:49.890Z,95.91
2022-10-07T15:16:23.078Z,97.18
2022-10-07T15:18:52.835Z,97.03
2022-10-07T15:21:22.202Z,96.91
2022-10-07T15:23:53.551Z,96.54
2022-10-07T15:26:23.686Z,96.41
2022-10-07T15:28:56.444Z,96.93
2022-10-07T15:31:26.120Z,97.33
2022-10-07T15:33:57.667Z,96.72
2022-10-07T15:36:26.681Z,96.39
2022-10-07T15:38:53.414Z,97.17
2022-10-07T15:41:30.956Z,97.36
2022-10-07T15:44:22.378Z,96.85
2022-10-07T15:46:53.460Z,97.67
2022-10-07T15:49:22.256Z,97.71
2022-10-07T15:51:49.082Z,98.29
2022-10-07T15:54:16.477Z,99.22
2022-10-07T15:56:44.415Z,99.85
2022-10-07T15:59:11.268Z,100.00
2022-10-07T16:01:38.365Z,100.00
2022-10-07T16:04:06.190Z,100.00
2022-10-07T16:06:35.622Z,100.00
2022-10-07T16:09:03.558Z,100.00
2022-10-07T16:11:33.225Z,100.00
2022-10-07T16:14:02.262Z,100.00
2022-10-07T16:16:33.382Z,100.00
2022-10-07T16:19:01.287Z,100.00
2022-10-07T16:21:31.220Z,100.00
2022-10-07T16:24:06.485Z,100.00
2022-10-07T16:26:35.989Z,100.00
2022-10-07T16:29:23.858Z,100.00
2022-10-07T16:31:55.928Z,100.00
2022-10-07T16:34:25.827Z,100.00
2022-10-07T16:36:52.705Z,100.00
2022-10-07T16:39:20.838Z,100.00
2022-10-07T16:41:49.113Z,100.00
2022-10-07T16:44:16.099Z,100.00
2022-10-07T16:46:43.408Z,100.00
2022-10-07T16:49:15.891Z,100.00
2022-10-07T16:51:42.833Z,100.00
2022-10-07T16:54:13.096Z,100.00
2022-10-07T16:56:42.332Z,100.00
2022-10-07T16:59:10.967Z,100.00
2022-10-07T17:01:39.512Z,100.00
2022-10-07T17:04:07.241Z,100.00
2022-10-07T17:06:34.594Z,100.00
2022-10-07T17:09:04.619Z,100.00
2022-10-07T17:11:36.691Z,100.00
2022-10-07T17:14:07.605Z,100.00
2022-10-07T17:16:46.137Z,100.00
2022-10-07T17:19:17.833Z,100.00
2022-10-07T17:21:46.411Z,100.00
2022-10-07T17:24:13.674Z,100.00
2022-10-07T17:26:40.957Z,100.00
2022-10-07T17:29:12.120Z,100.00
2022-10-07T17:31:41.288Z,100.00
2022-10-07T17:34:10.084Z,100.00
2022-10-07T17:36:36.995Z,100.00
2022-10-07T17:39:04.334Z,100.00
2022-10-07T17:41:33.849Z,100.00
2022-10-07T17:44:03.665Z,100.00
2022-10-07T17:46:33.294Z,100.00
2022-10-07T17:49:01.985Z,100.00
2022-10-07T17:51:31.523Z,100.00
2022-10-07T17:54:00.341Z,100.00
2022-10-07T17:56:28.925Z,100.00
2022-10-07T17:58:55.770Z,100.00
2022-10-07T18:01:27.856Z,100.00
2022-10-07T18:03:56.246Z,100.00
2022-10-07T18:06:24.762Z,100.00
2022-10-07T18:08:51.503Z,100.00
2022-10-07T18:11:18.208Z,100.00
2022-10-07T18:14:05.075Z,100.00
2022-10-07T18:16:33.403Z,100.00
2022-10-07T18:19:00.420Z,100.00
2022-10-07T18:21:30.651Z,100.00
2022-10-07T18:23:58.139Z,100.00
2022-10-07T18:26:24.899Z,100.00
2022-10-07T18:28:51.737Z,100.00
2022-10-07T18:31:19.245Z,100.00
2022-10-07T18:33:46.421Z,100.00
2022-10-07T18:36:19.420Z,100.00
2022-10-07T18:38:46.528Z,100.00
2022-10-07T18:41:15.132Z,100.00
2022-10-07T18:43:43.996Z,100.00
2022-10-07T18:46:14.083Z,100.00
2022-10-07T18:48:43.298Z,100.00
2022-10-07T18:51:10.858Z,100.00
2022-10-07T18:53:39.309Z,100.00
2022-10-07T18:56:11.844Z,100.00
2022-10-07T18:58:44.071Z,100.00
2022-10-07T19:01:14.316Z,100.00
2022-10-07T19:03:41.259Z,100.00
2022-10-07T19:06:14.326Z,100.00
2022-10-07T19:08:41.402Z,100.00
2022-10-07T19:11:20.597Z,100.00
2022-10-07T19:13:50.463Z,100.00
2022-10-07T19:16:35.108Z,100.00
2022-10-07T19:19:05.643Z,100.00
2022-10-07T19:21:32.798Z,100.00
2022-10-07T19:24:03.455Z,100.00
2022-10-07T19:26:42.831Z,100.00
2022-10-07T19:29:10.900Z,100.00
2022-10-07T19:31:43.549Z,100.00
2022-10-07T19:34:17.248Z,100.00
2022-10-07T19:36:48.306Z,100.00
2022-10-07T19:39:20.768Z,100.00
2022-10-07T19:41:48.195Z,100.00
2022-10-07T19:44:15.662Z,100.00
2022-10-07T19:46:42.622Z,100.00
2022-10-07T19:49:09.504Z,100.00
2022-10-07T19:51:37.815Z,100.00
2022-10-07T19:54:10.136Z,100.00
2022-10-07T19:56:38.256Z,100.00
2022-10-07T19:59:07.607Z,100.00
2022-10-07T20:01:37.299Z,100.00
2022-10-07T20:04:06.730Z,100.00
2022-10-07T20:06:36.974Z,100.00
2022-10-07T20:09:05.607Z,100.00
2022-10-07T20:11:32.829Z,100.00
2022-10-07T20:14:00.072Z,100.00
2022-10-07T20:16:28.000Z,100.00
2022-10-07T20:19:05.414Z,100.00
2022-10-07T20:21:35.797Z,100.00
2022-10-07T20:24:03.316Z,100.00
2022-10-07T20:26:32.817Z,100.00
2022-10-07T20:29:02.262Z,100.00
2022-10-07T20:31:35.263Z,100.00
2022-10-07T20:34:03.182Z,100.00
2022-10-07T20:36:33.509Z,100.00
2022-10-07T20:39:27.525Z,100.00
2022-10-07T20:42:13.262Z,100.00
2022-10-07T20:44:40.037Z,100.00
2022-10-07T20:47:08.718Z,100.00
2022-10-07T20:49:38.644Z,100.00
2022-10-07T20:52:07.913Z,100.00
2022-10-07T20:54:34.697Z,100.00
2022-10-07T20:57:01.536Z,100.00
2022-10-07T20:59:30.040Z,100.00
2022-10-07T21:01:57.194Z,100.00
2022-10-07T21:04:28.646Z,100.00
2022-10-07T21:06:58.990Z,100.00
2022-10-07T21:09:26.609Z,100.00
2022-10-07T21:11:57.034Z,100.00
2022-10-07T21:14:24.185Z,100.00
2022-10-07T21:16:52.480Z,100.00
2022-10-07T21:19:19.264Z,100.00
2022-10-07T21:21:46.102Z,100.00
2022-10-07T21:24:13.310Z,100.00
2022-10-07T21:26:40.112Z,100.00
2022-10-07T21:29:09.689Z,100.00
2022-10-07T21:31:37.031Z,100.00
2022-10-07T21:34:07.902Z,100.00
2022-10-07T21:36:37.887Z,100.00
2022-10-07T21:39:06.153Z,100.00
2022-10-07T21:41:35.201Z,100.00
2022-10-07T21:44:03.986Z,100.00
2022-10-07T21:46:32.705Z,100.00
2022-10-07T21:48:59.818Z,100.00
2022-10-07T21:51:27.787Z,100.00
2022-10-07T21:53:58.180Z,100.00
2022-10-07T21:56:27.067Z,100.00
2022-10-07T21:58:54.258Z,100.00
2022-10-07T22:01:23.525Z,100.00
2022-10-07T22:04:16.030Z,100.00
2022-10-07T22:07:01.501Z,100.00
2022-10-07T22:09:29.030Z,100.00
2022-10-07T22:11:57.574Z,100.00
2022-10-07T22:14:24.864Z,100.00
2022-10-07T22:16:51.948Z,100.00
2022-10-07T22:19:18.728Z,100.00
2022-10-07T22:21:45.999Z,100.00
2022-10-07T22:24:14.260Z,100.00
2022-10-07T22:26:46.570Z,100.00
2022-10-07T22:29:14.023Z,100.00
2022-10-07T22:31:52.900Z,100.00
2022-10-07T22:34:38.727Z,100.00
2022-10-07T22:37:06.193Z,100.00
2022-10-07T22:39:32.860Z,100.00
2022-10-07T22:42:01.050Z,100.00
2022-10-07T22:44:28.486Z,100.00
2022-10-07T22:46:56.880Z,100.00
2022-10-07T22:49:27.297Z,100.00
2022-10-07T22:51:58.221Z,100.00
2022-10-07T22:54:26.000Z,100.00
2022-10-07T22:56:52.647Z,100.00
2022-10-07T22:59:19.809Z,100.00
2022-10-07T23:01:47.064Z,100.00
2022-10-07T23:04:13.817Z,100.00
2022-10-07T23:06:40.507Z,100.00
2022-10-07T23:09:07.167Z,100.00
2022-10-07T23:11:33.894Z,100.00
2022-10-07T23:14:00.581Z,100.00
2022-10-07T23:16:29.852Z,100.00
2022-10-07T23:18:56.922Z,100.00
2022-10-07T23:21:25.898Z,100.00
2022-10-07T23:24:02.860Z,100.00
2022-10-07T23:26:31.872Z,100.00
2022-10-07T23:29:00.553Z,100.00
2022-10-07T23:31:29.944Z,100.00
2022-10-07T23:33:58.689Z,100.00
2022-10-07T23:36:26.800Z,100.00
2022-10-07T23:38:54.205Z,100.00
2022-10-07T23:41:26.146Z,100.00
2022-10-07T23:43:55.441Z,100.00
2022-10-07T23:46:24.671Z,100.00
2022-10-07T23:48:53.393Z,100.00
2022-10-07T23:51:22.903Z,100.00
2022-10-07T23:53:50.029Z,100.00
2022-10-07T23:56:18.684Z,100.00
2022-10-07T23:58:45.520Z,100.00
